»·PEaware :: N62KM KOTH-KSTS

N62KM :: KOTH-KSTS

FLIGHT INFORMATION

Flight Status: Arrived
Operator: Privately registered:
United States
More flights under this callsign
Pilot: Shane P. (16837)
Aircraft: PILATUS PC-12 EAGLE
(PC12)
More flights by this aircraft type
Origin: KOTH North Bend Mun
United States
Destination: KSTS Sonoma Co
United States
More flights between these airports :: More routes between these airports
Route: VFR
File this flight plan on PilotEdge
Remarks:
Altitude:
(Current/Filed)
17,500ft
Speed:
(Current/Filed)
250kts
Departed: 04-Oct-17 05:10 PM
Arrived: 04-Oct-17 06:24 PM
Distance/Time
Traveled:
301nm/1:13
Distance/Time
To Go:
Arrived

Flight Plot

Page will automatically refresh every two minutes.

Flight plan parsing failed; only flown route is shown


Map Options




Map Legend


Flown Route
Filed Route
Departure Airport
Arrival Airport
Navaid (VOR, NDB)
Fix

Horizontal Profiles

Position Reports

Time Latitude Longitude Heading Altitude Ground
Speed
04-Oct-17 16:48 43.414545 -124.245758 241 22ft 0kts
04-Oct-17 16:49 43.414545 -124.245758 241 22ft 0kts
04-Oct-17 16:50 43.414545 -124.245758 241 22ft 0kts
04-Oct-17 16:51 43.414545 -124.245758 241 22ft 0kts
04-Oct-17 16:52 43.414545 -124.245758 241 22ft 0kts
04-Oct-17 16:53 43.414545 -124.245758 241 22ft 0kts
04-Oct-17 16:54 43.414545 -124.245758 241 22ft 0kts
04-Oct-17 16:55 43.414545 -124.245758 241 22ft 0kts
04-Oct-17 16:56 43.414545 -124.245758 241 22ft 0kts
04-Oct-17 16:57 43.414545 -124.245758 241 22ft 0kts
04-Oct-17 16:58 43.414545 -124.245758 241 22ft 0kts
04-Oct-17 16:59 43.414545 -124.245758 241 22ft 0kts
04-Oct-17 17:00 43.414545 -124.245758 241 22ft 0kts
04-Oct-17 17:01 43.414545 -124.245758 241 22ft 0kts
04-Oct-17 17:02 43.414545 -124.245758 241 22ft 0kts
04-Oct-17 17:03 43.414545 -124.245758 241 22ft 0kts
04-Oct-17 17:04 43.414545 -124.245758 241 22ft 0kts
04-Oct-17 17:05 43.414545 -124.245758 241 22ft 0kts
04-Oct-17 17:06 43.414543 -124.245762 240 22ft 0kts
04-Oct-17 17:07 43.414543 -124.245762 240 22ft 0kts
04-Oct-17 17:08 43.414543 -124.245762 240 22ft 0kts
04-Oct-17 17:09 43.414543 -124.245762 240 22ft 0kts
04-Oct-17 17:10 43.414831 -124.244059 85 22ft 16kts
04-Oct-17 17:11 43.410852 -124.240605 149 22ft 16kts
04-Oct-17 17:12 43.409132 -124.238751 59 22ft 0kts
04-Oct-17 17:13 43.409588 -124.238013 324 22ft 0kts
04-Oct-17 17:14 43.425808 -124.251002 328 807ft 107kts
04-Oct-17 17:15 43.406537 -124.267520 155 2594ft 157kts
04-Oct-17 17:16 43.364536 -124.247538 164 4422ft 160kts
04-Oct-17 17:17 43.321018 -124.232743 165 6235ft 162kts
04-Oct-17 17:18 43.276286 -124.218429 165 7930ft 168kts
04-Oct-17 17:19 43.229783 -124.203710 165 9588ft 174kts
04-Oct-17 17:20 43.181274 -124.188413 165 11203ft 183kts
04-Oct-17 17:21 43.130490 -124.172458 165 12755ft 191kts
04-Oct-17 17:22 43.077866 -124.155927 164 14293ft 196kts
04-Oct-17 17:23 43.023651 -124.138926 164 15746ft 202kts
04-Oct-17 17:24 42.968102 -124.121542 164 17121ft 207kts
04-Oct-17 17:25 42.906670 -124.102458 165 17507ft 254kts
04-Oct-17 17:26 42.833436 -124.080351 165 17498ft 278kts
04-Oct-17 17:27 42.756784 -124.057037 165 17499ft 285kts
04-Oct-17 17:28 42.678881 -124.033104 166 17501ft 287kts
04-Oct-17 17:29 42.601066 -124.009080 166 17503ft 287kts
04-Oct-17 17:30 42.523240 -123.985037 166 17506ft 287kts
04-Oct-17 17:31 42.445201 -123.960961 166 17505ft 287kts
04-Oct-17 17:32 42.367303 -123.936987 166 17507ft 287kts
04-Oct-17 17:33 42.289351 -123.913056 166 17507ft 287kts
04-Oct-17 17:34 42.211073 -123.889082 167 17505ft 288kts
04-Oct-17 17:35 42.132872 -123.865202 167 17504ft 288kts
04-Oct-17 17:36 42.054357 -123.841281 167 17502ft 289kts
04-Oct-17 17:37 41.976154 -123.817512 167 17498ft 288kts
04-Oct-17 17:38 41.898080 -123.793828 167 17498ft 287kts
04-Oct-17 17:39 41.820180 -123.770223 167 17588ft 287kts
04-Oct-17 17:40 41.742251 -123.746709 167 17585ft 287kts
04-Oct-17 17:41 41.663979 -123.723160 167 17584ft 287kts
04-Oct-17 17:42 41.585968 -123.699741 168 17583ft 287kts
04-Oct-17 17:43 41.508017 -123.676384 168 17582ft 287kts
04-Oct-17 17:44 41.429984 -123.653044 168 17581ft 286kts
04-Oct-17 17:45 41.352329 -123.629894 168 17579ft 286kts
04-Oct-17 17:46 41.274454 -123.606733 168 17571ft 286kts
04-Oct-17 17:47 41.197073 -123.583756 169 17569ft 285kts
04-Oct-17 17:48 41.119828 -123.560975 169 17569ft 284kts
04-Oct-17 17:49 41.042491 -123.538151 168 17568ft 284kts
04-Oct-17 17:50 40.965584 -123.515166 170 17567ft 283kts
04-Oct-17 17:51 40.888849 -123.495915 173 17626ft 279kts
04-Oct-17 17:52 40.812098 -123.475102 178 17568ft 280kts
04-Oct-17 17:53 40.735487 -123.453687 169 17571ft 282kts
04-Oct-17 17:54 40.658913 -123.430618 177 17577ft 279kts
04-Oct-17 17:55 40.582504 -123.410194 167 17583ft 281kts
04-Oct-17 17:56 40.507603 -123.390844 189 17602ft 273kts
04-Oct-17 17:57 40.432575 -123.365318 168 17529ft 281kts
04-Oct-17 17:58 40.356706 -123.343643 170 17564ft 281kts
04-Oct-17 17:59 40.279938 -123.320096 170 17532ft 281kts
04-Oct-17 18:00 40.203744 -123.298661 168 17544ft 281kts
04-Oct-17 18:01 40.128036 -123.274781 168 17514ft 282kts
04-Oct-17 18:02 40.051327 -123.253842 171 17520ft 281kts
04-Oct-17 18:03 39.975166 -123.231608 169 17556ft 279kts
04-Oct-17 18:04 39.899936 -123.207322 171 17558ft 279kts
04-Oct-17 18:05 39.823590 -123.187280 169 17493ft 280kts
04-Oct-17 18:06 39.748053 -123.164441 169 17537ft 277kts
04-Oct-17 18:07 39.672667 -123.142189 170 17526ft 278kts
04-Oct-17 18:08 39.597111 -123.125451 160 17472ft 275kts
04-Oct-17 18:09 39.528776 -123.102319 170 16497ft 250kts
04-Oct-17 18:10 39.459888 -123.082458 169 15697ft 256kts
04-Oct-17 18:11 39.389833 -123.063750 173 14933ft 256kts
04-Oct-17 18:12 39.318860 -123.043723 171 13933ft 262kts
04-Oct-17 18:13 39.247379 -123.027128 171 13079ft 260kts
04-Oct-17 18:14 39.177187 -123.007978 166 12289ft 258kts
04-Oct-17 18:15 39.107987 -122.984209 165 11215ft 255kts
04-Oct-17 18:16 39.039138 -122.961336 167 9961ft 253kts
04-Oct-17 18:17 38.972356 -122.942242 170 9111ft 244kts
04-Oct-17 18:18 38.905924 -122.926702 170 8141ft 240kts
04-Oct-17 18:19 38.841265 -122.911605 169 7322ft 232kts
04-Oct-17 18:20 38.778452 -122.895063 168 6210ft 228kts
04-Oct-17 18:21 38.719013 -122.876695 164 4978ft 206kts
04-Oct-17 18:22 38.667022 -122.861942 171 3631ft 184kts
04-Oct-17 18:23 38.616127 -122.854988 181 2765ft 173kts
04-Oct-17 18:24 38.571207 -122.865718 199 2001ft 155kts
04-Oct-17 18:25 38.535529 -122.845829 138 1087ft 124kts
04-Oct-17 18:26 38.504958 -122.817811 156 678ft 137kts
04-Oct-17 18:27 38.504084 -122.806644 334 137ft 76kts
04-Oct-17 18:28 38.510948 -122.808881 92 130ft 0kts
04-Oct-17 18:29 38.511228 -122.808101 334 130ft 6kts
04-Oct-17 18:30 38.512325 -122.806335 1 130ft 9kts
04-Oct-17 18:31 38.513166 -122.805130 91 130ft 2kts
04-Oct-17 18:32 38.513396 -122.804133 220 130ft 0kts
04-Oct-17 18:33 38.513396 -122.804133 220 130ft 0kts
04-Oct-17 18:34 38.513396 -122.804133 220 130ft 0kts
04-Oct-17 18:35 38.513396 -122.804133 220 130ft 0kts
04-Oct-17 18:36 38.513396 -122.804133 220 130ft 0kts
04-Oct-17 18:37 38.513396 -122.804133 220 130ft 0kts
04-Oct-17 18:38 38.513396 -122.804133 220 130ft 0kts

Navigation Log

Ident Type
Flight plan parsing failed, navigation log unavailable